Time;durP1;ratioP1;P1;durP2;ratioP2;P2;SDS_P1;SDS_P2;PMS_P1;PMS_P2;Temp;Humidity;BMP_temperature;BMP_pressure;BME280_temperature;BME280_humidity;BME280_pressure;Samples;Min_cycle;Max_cycle;Signal;HPM_P1;HPM_P2
2023/10/20 00:05:03;;;;;;;27.95;22.08;;;15.20;99.90;;;;;;20089117;29;20060;-41
2023/10/20 00:15:05;;;;;;;29.70;23.38;;;15.20;99.90;;;;;;20083692;29;20122;-41
2023/10/20 00:25:06;;;;;;;34.17;25.10;;;15.10;99.90;;;;;;20080728;29;20053;-40
2023/10/20 00:35:13;;;;;;;35.70;25.90;;;15.20;99.90;;;;;;20089277;29;20065;-40
2023/10/20 00:45:13;;;;;;;37.38;26.92;;;15.20;99.90;;;;;;20081483;29;20768;-41
2023/10/20 00:55:15;;;;;;;38.83;28.58;;;15.20;99.90;;;;;;20083794;29;20046;-40
2023/10/20 01:05:19;;;;;;;40.63;30.23;;;15.20;99.90;;;;;;20080828;29;20135;-40
2023/10/20 01:15:19;;;;;;;40.58;29.27;;;15.10;99.90;;;;;;20083981;29;20120;-40
2023/10/20 01:25:22;;;;;;;40.70;29.40;;;15.10;99.90;;;;;;20087838;29;20135;-40
2023/10/20 01:35:22;;;;;;;44.38;31.15;;;15.10;99.90;;;;;;20096678;29;20425;-40
2023/10/20 01:45:23;;;;;;;42.20;28.52;;;15.10;99.90;;;;;;20096574;29;20053;-40
2023/10/20 01:55:23;;;;;;;41.13;27.95;;;14.90;99.90;;;;;;20095987;29;20053;-40
2023/10/20 02:05:24;;;;;;;44.83;28.23;;;14.80;99.90;;;;;;20087178;29;20086;-40
2023/10/20 02:15:24;;;;;;;39.63;25.73;;;14.60;99.90;;;;;;20099999;29;20120;-41
2023/10/20 02:25:25;;;;;;;46.67;26.35;;;14.50;99.90;;;;;;20102584;29;20475;-40
2023/10/20 02:35:25;;;;;;;38.57;25.60;;;14.40;99.90;;;;;;20095666;29;20792;-40
2023/10/20 02:45:26;;;;;;;39.53;24.38;;;14.30;99.90;;;;;;20091712;29;20534;-40
2023/10/20 02:55:26;;;;;;;36.47;22.17;;;14.00;99.90;;;;;;20094165;29;20045;-40
2023/10/20 03:05:29;;;;;;;36.90;22.70;;;13.90;99.90;;;;;;20096943;29;20450;-40
2023/10/20 03:15:31;;;;;;;38.30;22.90;;;13.70;99.90;;;;;;20087953;29;20217;-40
2023/10/20 03:25:33;;;;;;;39.40;23.67;;;13.50;99.90;;;;;;20090486;29;20053;-40
2023/10/20 03:35:34;;;;;;;40.58;23.08;;;13.50;99.90;;;;;;20092697;29;20080;-40
2023/10/20 03:45:41;;;;;;;36.75;21.63;;;13.30;99.90;;;;;;20097090;29;20578;-40
2023/10/20 03:55:42;;;;;;;36.88;21.58;;;13.20;99.90;;;;;;20091510;29;20049;-40
2023/10/20 04:05:42;;;;;;;35.53;20.65;;;13.20;99.90;;;;;;20091526;29;20066;-40
2023/10/20 04:15:43;;;;;;;36.42;20.40;;;13.00;99.90;;;;;;20093016;29;20592;-40
2023/10/20 04:25:53;;;;;;;35.13;20.25;;;13.00;99.90;;;;;;20089839;29;20067;-40
2023/10/20 04:56:38;;;;;;;33.92;20.10;;;12.80;99.90;;;;;;20094756;29;20049;-41
2023/10/20 05:06:53;;;;;;;36.83;20.48;;;12.70;99.90;;;;;;20088136;29;20045;-40
2023/10/20 05:16:55;;;;;;;38.67;21.20;;;12.60;99.90;;;;;;20081359;29;20056;-40
2023/10/20 05:26:56;;;;;;;36.75;21.83;;;12.50;99.90;;;;;;20083268;29;20053;-40
2023/10/20 05:36:56;;;;;;;35.55;20.73;;;12.40;99.90;;;;;;20086511;29;20461;-40
2023/10/20 05:46:57;;;;;;;35.88;19.95;;;12.40;99.90;;;;;;20084917;29;20053;-40
2023/10/20 05:56:57;;;;;;;29.73;18.37;;;12.30;99.90;;;;;;20088054;29;20045;-40
2023/10/20 06:06:58;;;;;;;27.97;16.13;;;12.20;99.90;;;;;;20081126;29;20545;-41
2023/10/20 06:16:58;;;;;;;22.92;13.82;;;12.10;99.90;;;;;;20097812;29;20514;-40
2023/10/20 06:27:02;;;;;;;23.20;13.50;;;12.00;99.90;;;;;;20088754;29;20061;-40
2023/10/20 06:37:08;;;;;;;22.83;13.02;;;11.90;99.90;;;;;;20085817;29;20479;-40
2023/10/20 06:47:10;;;;;;;20.83;11.38;;;11.80;99.90;;;;;;20091682;29;20053;-40
2023/10/20 06:57:13;;;;;;;18.58;10.70;;;11.70;99.90;;;;;;20093429;29;20124;-40
2023/10/20 07:07:17;;;;;;;18.80;9.73;;;11.50;99.90;;;;;;20101094;29;20139;-40
2023/10/20 07:17:18;;;;;;;17.90;10.88;;;11.50;99.90;;;;;;20085469;29;20038;-39
2023/10/20 07:27:20;;;;;;;17.67;10.88;;;11.40;99.90;;;;;;20113890;29;20681;-40
2023/10/20 07:37:21;;;;;;;20.90;11.77;;;11.30;99.90;;;;;;20106653;29;20129;-40
2023/10/20 07:47:22;;;;;;;20.75;10.73;;;11.20;99.90;;;;;;20097496;29;20049;-39
2023/10/20 07:57:23;;;;;;;22.45;10.68;;;11.10;99.90;;;;;;20085910;29;20050;-40
2023/10/20 08:07:24;;;;;;;20.92;9.80;;;11.00;99.90;;;;;;20101945;29;20128;-39
2023/10/20 08:17:25;;;;;;;18.00;9.43;;;10.90;99.90;;;;;;20086323;29;20118;-41
2023/10/20 08:27:25;;;;;;;16.35;8.70;;;10.90;99.90;;;;;;20077434;29;20167;-41
2023/10/20 08:37:26;;;;;;;13.20;7.47;;;10.90;99.90;;;;;;20090760;29;20668;-40
2023/10/20 08:47:27;;;;;;;11.45;6.43;;;10.90;99.90;;;;;;20087982;29;20160;-39
2023/10/20 08:57:29;;;;;;;10.82;5.68;;;10.80;99.90;;;;;;20098744;29;20055;-39
2023/10/20 09:07:31;;;;;;;6.78;4.18;;;10.70;99.90;;;;;;20072804;29;20171;-40
2023/10/20 09:17:33;;;;;;;5.93;3.63;;;10.60;99.90;;;;;;20090062;29;20049;-39
2023/10/20 09:27:34;;;;;;;5.07;3.20;;;10.60;99.90;;;;;;20079385;29;20056;-40
2023/10/20 09:37:36;;;;;;;7.13;3.17;;;10.60;99.90;;;;;;20091345;29;20068;-40
2023/10/20 09:47:38;;;;;;;5.72;2.75;;;10.50;99.90;;;;;;20099208;29;20484;-40
2023/10/20 09:57:39;;;;;;;5.05;2.60;;;10.40;99.90;;;;;;20104078;29;20406;-42
2023/10/20 10:07:40;;;;;;;4.45;2.30;;;10.40;99.90;;;;;;20108290;29;20041;-41
2023/10/20 10:17:51;;;;;;;3.65;1.90;;;10.40;99.90;;;;;;20091078;29;20590;-43
2023/10/20 10:27:51;;;;;;;2.42;1.42;;;10.30;99.90;;;;;;20034278;29;20118;-42
2023/10/20 10:37:53;;;;;;;2.28;1.35;;;10.30;99.90;;;;;;20052582;29;20494;-41
2023/10/20 10:48:14;;;;;;;2.58;1.42;;;10.20;99.90;;;;;;20050230;29;20112;-44
2023/10/20 10:58:15;;;;;;;1.88;0.93;;;10.20;99.90;;;;;;20051503;29;20148;-41
2023/10/20 11:08:19;;;;;;;2.47;1.00;;;10.20;99.90;;;;;;20051352;29;20053;-41
2023/10/20 11:18:20;;;;;;;1.58;0.90;;;10.20;99.90;;;;;;20053793;29;20536;-42
2023/10/20 11:28:22;;;;;;;2.10;0.82;;;10.10;99.90;;;;;;20100478;29;20064;-41
2023/10/20 11:38:22;;;;;;;4.28;1.58;;;10.20;99.90;;;;;;20095817;29;20058;-42
2023/10/20 11:48:23;;;;;;;1.60;0.80;;;10.10;99.90;;;;;;20106578;29;20049;-42
2023/10/20 11:58:23;;;;;;;1.52;0.82;;;10.10;99.90;;;;;;20092850;29;20084;-41
2023/10/20 12:08:24;;;;;;;1.60;1.02;;;10.20;99.90;;;;;;20103761;29;20057;-42
2023/10/20 12:18:25;;;;;;;2.38;1.10;;;10.20;99.90;;;;;;20069687;29;20507;-42
2023/10/20 12:28:26;;;;;;;1.60;1.08;;;10.30;99.90;;;;;;20086321;29;20176;-43
2023/10/20 12:38:27;;;;;;;2.40;1.35;;;10.30;99.90;;;;;;20106753;29;20049;-42
2023/10/20 12:48:27;;;;;;;1.85;1.13;;;10.30;99.90;;;;;;20066580;29;20041;-42
2023/10/20 12:58:28;;;;;;;1.48;0.90;;;10.40;99.90;;;;;;20116703;29;20071;-42
2023/10/20 13:08:29;;;;;;;1.42;0.80;;;10.30;99.90;;;;;;20106153;29;20340;-43
2023/10/20 13:18:30;;;;;;;1.70;1.13;;;10.40;99.90;;;;;;20104105;29;20635;-44
2023/10/20 13:28:32;;;;;;;2.95;1.10;;;10.40;99.90;;;;;;20073026;29;20378;-43
2023/10/20 13:38:35;;;;;;;2.78;1.35;;;10.40;99.90;;;;;;20127883;29;20129;-42
2023/10/20 13:48:37;;;;;;;2.05;1.23;;;10.40;99.90;;;;;;20120304;29;20057;-43
2023/10/20 13:58:37;;;;;;;1.80;1.00;;;10.40;99.90;;;;;;20115709;29;20053;-42
2023/10/20 14:08:38;;;;;;;2.22;1.20;;;10.40;99.90;;;;;;20140113;29;20614;-42
2023/10/20 14:18:38;;;;;;;1.67;0.88;;;10.50;99.90;;;;;;20141179;29;20553;-42
2023/10/20 14:28:39;;;;;;;1.65;0.90;;;10.50;99.90;;;;;;20139048;29;20135;-42
2023/10/20 14:38:39;;;;;;;1.60;0.88;;;10.50;99.90;;;;;;20128284;29;22030;-43
2023/10/20 14:48:40;;;;;;;1.83;0.90;;;10.60;99.90;;;;;;20125349;29;20105;-42
2023/10/20 14:58:40;;;;;;;1.70;0.93;;;10.60;99.90;;;;;;20127526;29;20308;-42
2023/10/20 15:08:41;;;;;;;1.83;0.80;;;10.60;99.90;;;;;;20126667;29;20378;-44
2023/10/20 15:18:42;;;;;;;1.40;0.80;;;10.70;99.90;;;;;;20126311;29;20053;-43
2023/10/20 15:28:43;;;;;;;2.35;1.05;;;10.80;99.90;;;;;;20119423;29;20045;-43
2023/10/20 15:38:43;;;;;;;3.05;1.88;;;10.80;99.90;;;;;;20095634;29;20065;-44
2023/10/20 15:48:44;;;;;;;2.67;1.57;;;10.80;99.90;;;;;;20092819;29;20466;-43
2023/10/20 15:58:44;;;;;;;2.90;1.60;;;10.90;99.90;;;;;;20115573;29;20474;-43
2023/10/20 16:08:45;;;;;;;6.65;3.50;;;10.80;99.90;;;;;;20122757;29;20049;-43
2023/10/20 16:18:45;;;;;;;5.88;4.20;;;11.00;99.90;;;;;;20116776;29;20053;-43
2023/10/20 16:28:46;;;;;;;6.80;4.68;;;11.10;99.90;;;;;;20095238;29;20057;-43
2023/10/20 16:38:47;;;;;;;9.63;6.50;;;11.10;99.90;;;;;;20103938;29;20478;-42
2023/10/20 16:48:48;;;;;;;9.63;5.60;;;11.20;99.90;;;;;;20116302;29;20052;-43
2023/10/20 16:58:50;;;;;;;8.95;6.28;;;11.50;99.90;;;;;;20115000;29;20065;-43
2023/10/20 17:08:50;;;;;;;9.13;6.90;;;11.70;99.90;;;;;;20114893;29;20049;-43
2023/10/20 17:18:51;;;;;;;11.00;8.00;;;11.90;99.90;;;;;;20117137;29;20052;-42
2023/10/20 17:28:51;;;;;;;15.05;10.32;;;12.00;99.90;;;;;;20119525;29;20093;-43
2023/10/20 17:38:52;;;;;;;20.27;12.57;;;12.30;99.90;;;;;;20118301;29;20056;-43
2023/10/20 17:48:53;;;;;;;25.43;13.67;;;12.60;99.90;;;;;;20116604;29;20084;-42
2023/10/20 17:58:53;;;;;;;26.27;14.38;;;12.80;99.90;;;;;;20120455;29;20531;-43
2023/10/20 18:08:54;;;;;;;27.65;15.65;;;13.10;99.90;;;;;;20123310;29;20068;-42
2023/10/20 18:18:54;;;;;;;25.63;15.77;;;13.40;99.90;;;;;;20132460;29;20474;-42
2023/10/20 18:28:55;;;;;;;27.55;15.82;;;13.60;99.90;;;;;;20128713;29;20121;-42
2023/10/20 18:38:55;;;;;;;23.88;15.73;;;13.80;99.90;;;;;;20127908;29;20045;-42
2023/10/20 18:48:56;;;;;;;25.25;16.15;;;13.80;99.90;;;;;;20123953;29;20045;-42
2023/10/20 18:58:57;;;;;;;27.92;15.80;;;13.90;99.90;;;;;;20109996;29;20397;-42
2023/10/20 19:08:57;;;;;;;26.08;16.25;;;14.00;99.90;;;;;;20107480;29;20118;-42
2023/10/20 19:18:58;;;;;;;33.00;17.58;;;13.90;99.90;;;;;;20099802;29;20064;-43
2023/10/20 19:28:59;;;;;;;25.25;16.50;;;14.00;99.90;;;;;;20086222;29;20502;-42
2023/10/20 19:38:59;;;;;;;23.02;14.98;;;14.00;99.90;;;;;;20074606;29;20778;-43
2023/10/20 19:49:00;;;;;;;21.73;13.85;;;13.80;99.90;;;;;;20075195;29;20057;-43
2023/10/20 19:59:00;;;;;;;20.00;12.80;;;13.90;99.90;;;;;;20069706;29;20134;-43
2023/10/20 20:09:01;;;;;;;19.40;12.27;;;13.80;99.90;;;;;;20089560;29;20355;-42
2023/10/20 20:19:01;;;;;;;23.98;13.40;;;13.90;99.90;;;;;;20085796;29;20065;-43
2023/10/20 20:29:04;;;;;;;18.88;11.40;;;13.80;99.90;;;;;;20087928;29;20041;-42
2023/10/20 20:39:04;;;;;;;16.73;10.65;;;13.80;99.90;;;;;;20093322;29;20417;-42
2023/10/20 20:49:05;;;;;;;19.73;11.20;;;13.90;99.90;;;;;;20101197;29;20479;-42
2023/10/20 20:59:05;;;;;;;15.20;10.50;;;13.90;99.90;;;;;;20108792;29;21459;-42
2023/10/20 21:09:08;;;;;;;16.83;10.80;;;13.80;99.90;;;;;;20087945;29;20068;-42
2023/10/20 21:19:08;;;;;;;16.80;11.40;;;13.70;99.90;;;;;;20105911;29;20071;-42
2023/10/20 21:29:09;;;;;;;19.08;12.25;;;13.80;99.90;;;;;;20118784;29;20049;-42
2023/10/20 21:39:10;;;;;;;19.77;12.10;;;13.80;99.90;;;;;;20118758;29;20044;-42
2023/10/20 21:49:10;;;;;;;18.33;11.30;;;13.70;99.90;;;;;;20113869;29;20361;-42
2023/10/20 21:59:11;;;;;;;14.68;11.55;;;13.70;99.90;;;;;;20113369;29;20045;-42
2023/10/20 22:09:12;;;;;;;19.80;12.25;;;13.60;99.90;;;;;;20115435;29;20390;-41
2023/10/20 22:19:13;;;;;;;18.83;10.77;;;13.70;99.90;;;;;;20111568;29;20053;-42
2023/10/20 22:29:13;;;;;;;18.35;9.73;;;13.60;99.90;;;;;;20106963;29;20057;-42
2023/10/20 22:39:14;;;;;;;14.10;8.65;;;13.60;99.90;;;;;;20116537;29;20382;-42
2023/10/20 22:49:15;;;;;;;19.08;8.82;;;13.50;99.90;;;;;;20123853;29;20053;-42
2023/10/20 22:59:15;;;;;;;14.00;8.13;;;13.50;99.90;;;;;;20124698;29;20048;-42
2023/10/20 23:09:16;;;;;;;11.45;7.13;;;13.40;99.90;;;;;;20121909;29;20049;-42
2023/10/20 23:19:17;;;;;;;13.70;7.68;;;13.30;99.90;;;;;;20117016;29;20073;-42
2023/10/20 23:29:18;;;;;;;14.32;7.28;;;13.40;99.90;;;;;;20106353;29;20414;-42
2023/10/20 23:39:18;;;;;;;14.82;7.18;;;13.30;99.90;;;;;;20106674;29;20041;-42
2023/10/20 23:49:19;;;;;;;11.80;6.57;;;13.30;99.90;;;;;;20101703;29;20584;-42
2023/10/20 23:59:19;;;;;;;15.88;6.55;;;13.30;99.90;;;;;;20105305;29;20413;-42
